sensor_id;sensor_type;location;lat;lon;timestamp;P1;durP1;ratioP1;P2;durP2;ratioP2
48853;SDS011;34673;52.808;17.856;2024-03-06T00:01:10;66.35;;;32.65;;
48853;SDS011;34673;52.808;17.856;2024-03-06T00:03:38;68.80;;;32.33;;
48853;SDS011;34673;52.808;17.856;2024-03-06T00:06:05;66.63;;;32.55;;
48853;SDS011;34673;52.808;17.856;2024-03-06T00:08:32;66.72;;;33.33;;
48853;SDS011;34673;52.808;17.856;2024-03-06T00:11:01;87.30;;;39.58;;
48853;SDS011;34673;52.808;17.856;2024-03-06T00:13:29;69.78;;;34.63;;
48853;SDS011;34673;52.808;17.856;2024-03-06T00:15:56;65.15;;;32.47;;
48853;SDS011;34673;52.808;17.856;2024-03-06T00:18:23;71.63;;;32.95;;
48853;SDS011;34673;52.808;17.856;2024-03-06T00:20:51;67.00;;;32.63;;
48853;SDS011;34673;52.808;17.856;2024-03-06T00:23:19;70.63;;;33.42;;
48853;SDS011;34673;52.808;17.856;2024-03-06T00:25:46;66.32;;;32.83;;
48853;SDS011;34673;52.808;17.856;2024-03-06T00:28:14;65.22;;;32.88;;
48853;SDS011;34673;52.808;17.856;2024-03-06T00:30:41;73.00;;;33.92;;
48853;SDS011;34673;52.808;17.856;2024-03-06T00:33:09;67.00;;;33.80;;
48853;SDS011;34673;52.808;17.856;2024-03-06T00:35:36;69.32;;;33.50;;
48853;SDS011;34673;52.808;17.856;2024-03-06T00:38:04;66.95;;;33.65;;
48853;SDS011;34673;52.808;17.856;2024-03-06T00:40:31;62.80;;;31.50;;
48853;SDS011;34673;52.808;17.856;2024-03-06T00:42:59;60.80;;;31.48;;
48853;SDS011;34673;52.808;17.856;2024-03-06T00:45:26;62.00;;;31.67;;
48853;SDS011;34673;52.808;17.856;2024-03-06T00:47:53;66.47;;;32.45;;
48853;SDS011;34673;52.808;17.856;2024-03-06T00:50:21;53.88;;;28.42;;
48853;SDS011;34673;52.808;17.856;2024-03-06T00:52:49;66.20;;;30.42;;
48853;SDS011;34673;52.808;17.856;2024-03-06T00:55:16;52.22;;;28.50;;
48853;SDS011;34673;52.808;17.856;2024-03-06T00:57:44;60.20;;;30.35;;
48853;SDS011;34673;52.808;17.856;2024-03-06T01:00:11;68.60;;;32.60;;
48853;SDS011;34673;52.808;17.856;2024-03-06T01:02:39;60.90;;;30.42;;
48853;SDS011;34673;52.808;17.856;2024-03-06T01:05:07;67.43;;;31.15;;
48853;SDS011;34673;52.808;17.856;2024-03-06T01:07:39;54.97;;;28.50;;
48853;SDS011;34673;52.808;17.856;2024-03-06T01:10:06;52.40;;;29.30;;
48853;SDS011;34673;52.808;17.856;2024-03-06T01:12:35;54.05;;;28.38;;
48853;SDS011;34673;52.808;17.856;2024-03-06T01:15:02;56.50;;;29.75;;
48853;SDS011;34673;52.808;17.856;2024-03-06T01:17:30;60.70;;;30.08;;
48853;SDS011;34673;52.808;17.856;2024-03-06T01:19:58;68.70;;;32.88;;
48853;SDS011;34673;52.808;17.856;2024-03-06T01:22:26;63.47;;;31.15;;
48853;SDS011;34673;52.808;17.856;2024-03-06T01:24:53;59.75;;;30.60;;
48853;SDS011;34673;52.808;17.856;2024-03-06T01:27:20;68.07;;;32.53;;
48853;SDS011;34673;52.808;17.856;2024-03-06T01:29:48;60.58;;;30.88;;
48853;SDS011;34673;52.808;17.856;2024-03-06T01:32:15;61.00;;;31.35;;
48853;SDS011;34673;52.808;17.856;2024-03-06T01:34:43;57.88;;;30.73;;
48853;SDS011;34673;52.808;17.856;2024-03-06T01:37:10;54.05;;;29.25;;
48853;SDS011;34673;52.808;17.856;2024-03-06T01:39:37;59.72;;;30.85;;
48853;SDS011;34673;52.808;17.856;2024-03-06T01:42:04;66.38;;;31.75;;
48853;SDS011;34673;52.808;17.856;2024-03-06T01:44:32;57.58;;;30.30;;
48853;SDS011;34673;52.808;17.856;2024-03-06T01:47:15;55.92;;;29.60;;
48853;SDS011;34673;52.808;17.856;2024-03-06T01:49:43;59.17;;;29.83;;
48853;SDS011;34673;52.808;17.856;2024-03-06T01:52:11;49.22;;;27.48;;
48853;SDS011;34673;52.808;17.856;2024-03-06T01:54:41;52.33;;;28.05;;
48853;SDS011;34673;52.808;17.856;2024-03-06T01:57:09;61.97;;;30.55;;
48853;SDS011;34673;52.808;17.856;2024-03-06T01:59:40;55.13;;;29.05;;
48853;SDS011;34673;52.808;17.856;2024-03-06T02:02:08;59.42;;;31.55;;
48853;SDS011;34673;52.808;17.856;2024-03-06T02:04:38;57.63;;;29.35;;
48853;SDS011;34673;52.808;17.856;2024-03-06T02:07:08;58.20;;;29.17;;
48853;SDS011;34673;52.808;17.856;2024-03-06T02:09:37;55.22;;;30.48;;
48853;SDS011;34673;52.808;17.856;2024-03-06T02:12:05;59.42;;;29.60;;
48853;SDS011;34673;52.808;17.856;2024-03-06T02:14:35;58.40;;;30.30;;
48853;SDS011;34673;52.808;17.856;2024-03-06T02:17:03;60.58;;;30.38;;
48853;SDS011;34673;52.808;17.856;2024-03-06T02:19:40;57.53;;;30.48;;
48853;SDS011;34673;52.808;17.856;2024-03-06T02:22:08;57.80;;;31.05;;
48853;SDS011;34673;52.808;17.856;2024-03-06T02:24:37;64.68;;;32.58;;
48853;SDS011;34673;52.808;17.856;2024-03-06T02:27:04;68.63;;;33.63;;
48853;SDS011;34673;52.808;17.856;2024-03-06T02:29:34;58.30;;;30.35;;
48853;SDS011;34673;52.808;17.856;2024-03-06T02:32:02;55.58;;;29.75;;
48853;SDS011;34673;52.808;17.856;2024-03-06T02:34:29;63.45;;;32.83;;
48853;SDS011;34673;52.808;17.856;2024-03-06T02:36:57;62.35;;;33.13;;
48853;SDS011;34673;52.808;17.856;2024-03-06T02:39:24;64.18;;;33.35;;
48853;SDS011;34673;52.808;17.856;2024-03-06T02:41:51;72.93;;;35.42;;
48853;SDS011;34673;52.808;17.856;2024-03-06T02:44:18;73.78;;;35.65;;
48853;SDS011;34673;52.808;17.856;2024-03-06T02:46:47;61.88;;;32.15;;
48853;SDS011;34673;52.808;17.856;2024-03-06T02:49:15;61.28;;;30.70;;
48853;SDS011;34673;52.808;17.856;2024-03-06T02:51:44;56.58;;;30.50;;
48853;SDS011;34673;52.808;17.856;2024-03-06T02:54:11;63.05;;;32.10;;
48853;SDS011;34673;52.808;17.856;2024-03-06T02:56:39;68.50;;;33.28;;
48853;SDS011;34673;52.808;17.856;2024-03-06T02:59:06;58.50;;;31.58;;
48853;SDS011;34673;52.808;17.856;2024-03-06T03:01:34;61.60;;;31.48;;
48853;SDS011;34673;52.808;17.856;2024-03-06T03:04:01;72.00;;;34.95;;
48853;SDS011;34673;52.808;17.856;2024-03-06T03:06:28;74.95;;;34.35;;
48853;SDS011;34673;52.808;17.856;2024-03-06T03:08:56;69.30;;;33.75;;
48853;SDS011;34673;52.808;17.856;2024-03-06T03:11:23;58.47;;;30.73;;
48853;SDS011;34673;52.808;17.856;2024-03-06T03:13:50;60.78;;;30.45;;
48853;SDS011;34673;52.808;17.856;2024-03-06T03:16:17;66.90;;;32.22;;
48853;SDS011;34673;52.808;17.856;2024-03-06T03:18:47;61.95;;;32.70;;
48853;SDS011;34673;52.808;17.856;2024-03-06T03:21:15;68.00;;;33.42;;
48853;SDS011;34673;52.808;17.856;2024-03-06T03:23:42;76.53;;;33.67;;
48853;SDS011;34673;52.808;17.856;2024-03-06T03:26:09;60.33;;;30.45;;
48853;SDS011;34673;52.808;17.856;2024-03-06T03:31:07;61.28;;;32.35;;
48853;SDS011;34673;52.808;17.856;2024-03-06T03:33:36;66.72;;;31.80;;
48853;SDS011;34673;52.808;17.856;2024-03-06T03:38:34;72.03;;;33.35;;
48853;SDS011;34673;52.808;17.856;2024-03-06T03:41:08;75.30;;;34.50;;
48853;SDS011;34673;52.808;17.856;2024-03-06T03:43:37;69.60;;;34.17;;
48853;SDS011;34673;52.808;17.856;2024-03-06T03:46:07;70.65;;;34.38;;
48853;SDS011;34673;52.808;17.856;2024-03-06T03:48:35;71.60;;;34.70;;
48853;SDS011;34673;52.808;17.856;2024-03-06T03:51:04;78.78;;;35.70;;
48853;SDS011;34673;52.808;17.856;2024-03-06T03:53:34;67.55;;;33.65;;
48853;SDS011;34673;52.808;17.856;2024-03-06T03:56:02;69.40;;;33.92;;
48853;SDS011;34673;52.808;17.856;2024-03-06T03:58:30;68.97;;;35.55;;
48853;SDS011;34673;52.808;17.856;2024-03-06T04:00:58;79.43;;;36.78;;
48853;SDS011;34673;52.808;17.856;2024-03-06T04:03:26;63.88;;;32.83;;
48853;SDS011;34673;52.808;17.856;2024-03-06T04:05:53;68.68;;;34.97;;
48853;SDS011;34673;52.808;17.856;2024-03-06T04:08:21;72.65;;;35.42;;
48853;SDS011;34673;52.808;17.856;2024-03-06T04:10:48;66.57;;;35.05;;
48853;SDS011;34673;52.808;17.856;2024-03-06T04:13:15;82.43;;;37.70;;
48853;SDS011;34673;52.808;17.856;2024-03-06T04:15:43;72.70;;;36.03;;
48853;SDS011;34673;52.808;17.856;2024-03-06T04:18:10;77.40;;;36.05;;
48853;SDS011;34673;52.808;17.856;2024-03-06T04:20:38;72.68;;;36.08;;
48853;SDS011;34673;52.808;17.856;2024-03-06T04:23:05;72.70;;;35.65;;
48853;SDS011;34673;52.808;17.856;2024-03-06T04:25:32;88.07;;;38.58;;
48853;SDS011;34673;52.808;17.856;2024-03-06T04:27:59;82.20;;;39.25;;
48853;SDS011;34673;52.808;17.856;2024-03-06T04:30:29;76.87;;;37.17;;
48853;SDS011;34673;52.808;17.856;2024-03-06T04:32:56;75.28;;;36.75;;
48853;SDS011;34673;52.808;17.856;2024-03-06T04:35:23;79.63;;;37.85;;
48853;SDS011;34673;52.808;17.856;2024-03-06T04:37:50;81.22;;;37.72;;
48853;SDS011;34673;52.808;17.856;2024-03-06T04:40:17;77.25;;;37.70;;
48853;SDS011;34673;52.808;17.856;2024-03-06T04:42:46;74.10;;;37.60;;
48853;SDS011;34673;52.808;17.856;2024-03-06T04:45:15;80.78;;;38.45;;
48853;SDS011;34673;52.808;17.856;2024-03-06T04:47:43;74.88;;;37.17;;
48853;SDS011;34673;52.808;17.856;2024-03-06T04:50:11;81.93;;;39.30;;
48853;SDS011;34673;52.808;17.856;2024-03-06T04:52:42;81.82;;;39.55;;
48853;SDS011;34673;52.808;17.856;2024-03-06T04:55:11;89.68;;;40.13;;
48853;SDS011;34673;52.808;17.856;2024-03-06T04:57:39;83.20;;;38.70;;
48853;SDS011;34673;52.808;17.856;2024-03-06T05:00:09;86.22;;;40.03;;
48853;SDS011;34673;52.808;17.856;2024-03-06T05:02:38;78.28;;;36.28;;
48853;SDS011;34673;52.808;17.856;2024-03-06T05:05:23;90.47;;;39.88;;
48853;SDS011;34673;52.808;17.856;2024-03-06T05:08:09;85.82;;;40.55;;
48853;SDS011;34673;52.808;17.856;2024-03-06T05:10:54;82.15;;;38.47;;
48853;SDS011;34673;52.808;17.856;2024-03-06T05:13:38;88.28;;;40.30;;
48853;SDS011;34673;52.808;17.856;2024-03-06T05:16:23;84.60;;;38.17;;
48853;SDS011;34673;52.808;17.856;2024-03-06T05:19:08;82.93;;;39.15;;
48853;SDS011;34673;52.808;17.856;2024-03-06T05:21:54;83.13;;;37.63;;
48853;SDS011;34673;52.808;17.856;2024-03-06T05:24:40;83.72;;;38.88;;
48853;SDS011;34673;52.808;17.856;2024-03-06T05:27:25;90.50;;;39.47;;
48853;SDS011;34673;52.808;17.856;2024-03-06T05:30:10;74.45;;;37.05;;
48853;SDS011;34673;52.808;17.856;2024-03-06T05:32:54;83.72;;;39.00;;
48853;SDS011;34673;52.808;17.856;2024-03-06T05:35:39;83.75;;;37.72;;
48853;SDS011;34673;52.808;17.856;2024-03-06T05:38:24;81.05;;;36.65;;
48853;SDS011;34673;52.808;17.856;2024-03-06T05:41:09;81.50;;;36.70;;
48853;SDS011;34673;52.808;17.856;2024-03-06T05:43:53;79.40;;;36.60;;
48853;SDS011;34673;52.808;17.856;2024-03-06T05:46:37;91.60;;;39.97;;
48853;SDS011;34673;52.808;17.856;2024-03-06T05:49:22;83.43;;;37.40;;
48853;SDS011;34673;52.808;17.856;2024-03-06T05:52:06;79.65;;;38.00;;
48853;SDS011;34673;52.808;17.856;2024-03-06T05:54:51;70.95;;;34.97;;
48853;SDS011;34673;52.808;17.856;2024-03-06T05:57:35;72.82;;;34.65;;
48853;SDS011;34673;52.808;17.856;2024-03-06T06:00:20;77.22;;;35.03;;
48853;SDS011;34673;52.808;17.856;2024-03-06T06:02:48;81.15;;;36.05;;
48853;SDS011;34673;52.808;17.856;2024-03-06T06:05:16;85.55;;;37.13;;
48853;SDS011;34673;52.808;17.856;2024-03-06T06:07:50;82.47;;;35.42;;
48853;SDS011;34673;52.808;17.856;2024-03-06T06:10:18;77.53;;;33.67;;
48853;SDS011;34673;52.808;17.856;2024-03-06T06:15:16;73.65;;;33.33;;
48853;SDS011;34673;52.808;17.856;2024-03-06T06:17:43;76.10;;;33.42;;
48853;SDS011;34673;52.808;17.856;2024-03-06T06:20:13;83.65;;;34.80;;
48853;SDS011;34673;52.808;17.856;2024-03-06T06:22:45;87.72;;;36.08;;
48853;SDS011;34673;52.808;17.856;2024-03-06T06:25:12;84.35;;;34.03;;
48853;SDS011;34673;52.808;17.856;2024-03-06T06:27:40;88.00;;;34.47;;
48853;SDS011;34673;52.808;17.856;2024-03-06T06:30:07;89.65;;;36.38;;
48853;SDS011;34673;52.808;17.856;2024-03-06T06:32:41;96.95;;;35.13;;
48853;SDS011;34673;52.808;17.856;2024-03-06T06:35:09;91.00;;;35.13;;
48853;SDS011;34673;52.808;17.856;2024-03-06T06:37:38;102.63;;;36.20;;
48853;SDS011;34673;52.808;17.856;2024-03-06T06:40:06;97.30;;;37.30;;
48853;SDS011;34673;52.808;17.856;2024-03-06T06:42:35;104.60;;;37.30;;
48853;SDS011;34673;52.808;17.856;2024-03-06T06:45:05;108.72;;;37.25;;
48853;SDS011;34673;52.808;17.856;2024-03-06T06:47:36;98.30;;;35.88;;
48853;SDS011;34673;52.808;17.856;2024-03-06T06:50:04;98.85;;;35.30;;
48853;SDS011;34673;52.808;17.856;2024-03-06T06:52:32;119.88;;;38.78;;
48853;SDS011;34673;52.808;17.856;2024-03-06T06:55:01;101.65;;;36.38;;
48853;SDS011;34673;52.808;17.856;2024-03-06T06:57:30;95.28;;;36.10;;
48853;SDS011;34673;52.808;17.856;2024-03-06T06:59:57;108.13;;;37.78;;
48853;SDS011;34673;52.808;17.856;2024-03-06T07:02:24;125.75;;;38.80;;
48853;SDS011;34673;52.808;17.856;2024-03-06T07:04:52;101.15;;;36.90;;
48853;SDS011;34673;52.808;17.856;2024-03-06T07:07:19;108.72;;;37.10;;
48853;SDS011;34673;52.808;17.856;2024-03-06T07:09:48;136.15;;;38.85;;
48853;SDS011;34673;52.808;17.856;2024-03-06T07:12:16;119.57;;;38.42;;
48853;SDS011;34673;52.808;17.856;2024-03-06T07:14:43;116.72;;;37.38;;
48853;SDS011;34673;52.808;17.856;2024-03-06T07:17:10;128.43;;;38.75;;
48853;SDS011;34673;52.808;17.856;2024-03-06T07:19:37;145.95;;;41.63;;
48853;SDS011;34673;52.808;17.856;2024-03-06T07:22:06;128.57;;;37.53;;
48853;SDS011;34673;52.808;17.856;2024-03-06T07:24:33;125.78;;;39.50;;
48853;SDS011;34673;52.808;17.856;2024-03-06T07:27:04;138.88;;;41.58;;
48853;SDS011;34673;52.808;17.856;2024-03-06T07:29:32;128.75;;;40.97;;
48853;SDS011;34673;52.808;17.856;2024-03-06T07:31:59;121.10;;;39.25;;
48853;SDS011;34673;52.808;17.856;2024-03-06T07:34:27;114.18;;;38.33;;
48853;SDS011;34673;52.808;17.856;2024-03-06T07:36:55;133.07;;;41.30;;
48853;SDS011;34673;52.808;17.856;2024-03-06T07:39:22;117.40;;;39.20;;
48853;SDS011;34673;52.808;17.856;2024-03-06T07:41:49;138.15;;;39.05;;
48853;SDS011;34673;52.808;17.856;2024-03-06T07:44:16;124.22;;;40.22;;
48853;SDS011;34673;52.808;17.856;2024-03-06T07:46:43;125.40;;;40.50;;
48853;SDS011;34673;52.808;17.856;2024-03-06T07:49:11;130.98;;;41.60;;
48853;SDS011;34673;52.808;17.856;2024-03-06T07:51:38;115.75;;;40.15;;
48853;SDS011;34673;52.808;17.856;2024-03-06T07:54:07;143.00;;;43.50;;
48853;SDS011;34673;52.808;17.856;2024-03-06T07:56:34;109.35;;;38.63;;
48853;SDS011;34673;52.808;17.856;2024-03-06T07:59:01;128.52;;;41.60;;
48853;SDS011;34673;52.808;17.856;2024-03-06T08:01:28;101.03;;;39.15;;
48853;SDS011;34673;52.808;17.856;2024-03-06T08:03:56;116.88;;;41.50;;
48853;SDS011;34673;52.808;17.856;2024-03-06T08:06:23;104.57;;;39.20;;
48853;SDS011;34673;52.808;17.856;2024-03-06T08:08:51;122.60;;;41.35;;
48853;SDS011;34673;52.808;17.856;2024-03-06T08:11:18;117.35;;;41.60;;
48853;SDS011;34673;52.808;17.856;2024-03-06T08:13:48;112.78;;;43.00;;
48853;SDS011;34673;52.808;17.856;2024-03-06T08:16:16;112.40;;;40.03;;
48853;SDS011;34673;52.808;17.856;2024-03-06T08:18:44;109.78;;;42.17;;
48853;SDS011;34673;52.808;17.856;2024-03-06T08:21:11;104.35;;;40.33;;
48853;SDS011;34673;52.808;17.856;2024-03-06T08:23:38;104.35;;;40.85;;
48853;SDS011;34673;52.808;17.856;2024-03-06T08:26:06;111.75;;;40.92;;
48853;SDS011;34673;52.808;17.856;2024-03-06T08:28:33;114.75;;;42.17;;
48853;SDS011;34673;52.808;17.856;2024-03-06T08:31:00;126.30;;;44.47;;
48853;SDS011;34673;52.808;17.856;2024-03-06T08:33:27;114.10;;;42.17;;
48853;SDS011;34673;52.808;17.856;2024-03-06T08:35:55;139.20;;;44.08;;
48853;SDS011;34673;52.808;17.856;2024-03-06T08:38:22;102.05;;;41.28;;
48853;SDS011;34673;52.808;17.856;2024-03-06T08:40:50;103.97;;;41.72;;
48853;SDS011;34673;52.808;17.856;2024-03-06T08:43:17;87.88;;;38.85;;
48853;SDS011;34673;52.808;17.856;2024-03-06T08:45:46;128.98;;;45.60;;
48853;SDS011;34673;52.808;17.856;2024-03-06T08:48:13;107.28;;;44.67;;
48853;SDS011;34673;52.808;17.856;2024-03-06T08:50:40;129.13;;;45.75;;
48853;SDS011;34673;52.808;17.856;2024-03-06T08:53:08;167.45;;;53.42;;
48853;SDS011;34673;52.808;17.856;2024-03-06T08:55:36;160.40;;;50.88;;
48853;SDS011;34673;52.808;17.856;2024-03-06T08:58:03;146.88;;;51.17;;
48853;SDS011;34673;52.808;17.856;2024-03-06T09:00:31;144.25;;;51.42;;
48853;SDS011;34673;52.808;17.856;2024-03-06T09:02:58;156.30;;;53.00;;
48853;SDS011;34673;52.808;17.856;2024-03-06T09:05:26;125.05;;;47.08;;
48853;SDS011;34673;52.808;17.856;2024-03-06T09:07:53;134.77;;;49.20;;
48853;SDS011;34673;52.808;17.856;2024-03-06T09:10:20;143.00;;;50.45;;
48853;SDS011;34673;52.808;17.856;2024-03-06T09:12:47;204.18;;;56.63;;
48853;SDS011;34673;52.808;17.856;2024-03-06T09:15:15;208.07;;;58.78;;
48853;SDS011;34673;52.808;17.856;2024-03-06T09:17:43;148.82;;;52.33;;
48853;SDS011;34673;52.808;17.856;2024-03-06T09:20:12;169.05;;;53.72;;
48853;SDS011;34673;52.808;17.856;2024-03-06T09:22:40;198.15;;;58.83;;
48853;SDS011;34673;52.808;17.856;2024-03-06T09:25:09;158.02;;;54.13;;
48853;SDS011;34673;52.808;17.856;2024-03-06T09:27:43;155.88;;;54.08;;
48853;SDS011;34673;52.808;17.856;2024-03-06T09:30:10;156.85;;;55.33;;
48853;SDS011;34673;52.808;17.856;2024-03-06T09:32:39;153.73;;;52.80;;
48853;SDS011;34673;52.808;17.856;2024-03-06T09:35:09;174.57;;;54.80;;
48853;SDS011;34673;52.808;17.856;2024-03-06T09:37:36;163.48;;;56.22;;
48853;SDS011;34673;52.808;17.856;2024-03-06T09:40:03;143.07;;;51.83;;
48853;SDS011;34673;52.808;17.856;2024-03-06T09:42:31;129.75;;;48.83;;
48853;SDS011;34673;52.808;17.856;2024-03-06T09:44:59;154.07;;;54.50;;
48853;SDS011;34673;52.808;17.856;2024-03-06T09:47:27;149.13;;;52.13;;
48853;SDS011;34673;52.808;17.856;2024-03-06T09:49:59;152.18;;;53.30;;
48853;SDS011;34673;52.808;17.856;2024-03-06T09:52:29;145.77;;;51.38;;
48853;SDS011;34673;52.808;17.856;2024-03-06T09:54:58;145.20;;;51.90;;
48853;SDS011;34673;52.808;17.856;2024-03-06T09:57:27;143.82;;;52.58;;
48853;SDS011;34673;52.808;17.856;2024-03-06T09:59:54;153.85;;;51.95;;
48853;SDS011;34673;52.808;17.856;2024-03-06T10:02:36;145.43;;;51.13;;
48853;SDS011;34673;52.808;17.856;2024-03-06T10:05:05;124.95;;;48.47;;
48853;SDS011;34673;52.808;17.856;2024-03-06T10:07:47;129.45;;;47.20;;
48853;SDS011;34673;52.808;17.856;2024-03-06T10:10:15;117.18;;;46.55;;
48853;SDS011;34673;52.808;17.856;2024-03-06T10:12:45;134.00;;;46.03;;
48853;SDS011;34673;52.808;17.856;2024-03-06T10:15:14;106.57;;;44.60;;
48853;SDS011;34673;52.808;17.856;2024-03-06T10:17:42;102.10;;;42.50;;
48853;SDS011;34673;52.808;17.856;2024-03-06T10:20:22;99.20;;;39.75;;
48853;SDS011;34673;52.808;17.856;2024-03-06T10:22:51;88.38;;;40.47;;
48853;SDS011;34673;52.808;17.856;2024-03-06T10:25:24;87.40;;;38.40;;
48853;SDS011;34673;52.808;17.856;2024-03-06T10:28:09;88.80;;;39.17;;
48853;SDS011;34673;52.808;17.856;2024-03-06T10:30:39;87.88;;;38.85;;
48853;SDS011;34673;52.808;17.856;2024-03-06T10:33:10;89.50;;;37.60;;
48853;SDS011;34673;52.808;17.856;2024-03-06T10:35:42;92.03;;;40.35;;
48853;SDS011;34673;52.808;17.856;2024-03-06T10:38:12;84.15;;;37.10;;
48853;SDS011;34673;52.808;17.856;2024-03-06T10:40:40;75.75;;;34.88;;
48853;SDS011;34673;52.808;17.856;2024-03-06T10:43:09;77.50;;;36.87;;
48853;SDS011;34673;52.808;17.856;2024-03-06T10:48:22;80.20;;;36.35;;
48853;SDS011;34673;52.808;17.856;2024-03-06T10:50:51;86.70;;;36.08;;
48853;SDS011;34673;52.808;17.856;2024-03-06T10:53:19;76.93;;;36.05;;
48853;SDS011;34673;52.808;17.856;2024-03-06T10:55:51;71.20;;;35.47;;
48853;SDS011;34673;52.808;17.856;2024-03-06T10:58:18;63.08;;;33.20;;
48853;SDS011;34673;52.808;17.856;2024-03-06T11:00:47;67.35;;;31.60;;
48853;SDS011;34673;52.808;17.856;2024-03-06T11:03:15;69.53;;;34.03;;
48853;SDS011;34673;52.808;17.856;2024-03-06T11:05:43;69.93;;;32.53;;
48853;SDS011;34673;52.808;17.856;2024-03-06T11:08:15;64.32;;;31.50;;
48853;SDS011;34673;52.808;17.856;2024-03-06T11:10:44;68.80;;;33.45;;
48853;SDS011;34673;52.808;17.856;2024-03-06T11:15:59;64.40;;;33.08;;
48853;SDS011;34673;52.808;17.856;2024-03-06T11:23:35;64.32;;;33.22;;
48853;SDS011;34673;52.808;17.856;2024-03-06T11:26:42;64.63;;;32.65;;
48853;SDS011;34673;52.808;17.856;2024-03-06T11:29:17;63.60;;;32.85;;
48853;SDS011;34673;52.808;17.856;2024-03-06T11:32:02;61.15;;;32.00;;
48853;SDS011;34673;52.808;17.856;2024-03-06T11:34:30;63.78;;;32.20;;
48853;SDS011;34673;52.808;17.856;2024-03-06T11:36:58;59.72;;;32.10;;
48853;SDS011;34673;52.808;17.856;2024-03-06T11:39:28;60.17;;;30.35;;
48853;SDS011;34673;52.808;17.856;2024-03-06T11:42:00;53.60;;;29.48;;
48853;SDS011;34673;52.808;17.856;2024-03-06T11:44:28;52.95;;;29.05;;
48853;SDS011;34673;52.808;17.856;2024-03-06T11:49:36;56.97;;;29.63;;
48853;SDS011;34673;52.808;17.856;2024-03-06T11:52:06;53.15;;;27.63;;
48853;SDS011;34673;52.808;17.856;2024-03-06T11:54:35;57.83;;;29.20;;
48853;SDS011;34673;52.808;17.856;2024-03-06T11:57:03;60.58;;;29.45;;
48853;SDS011;34673;52.808;17.856;2024-03-06T11:59:32;49.80;;;26.77;;
48853;SDS011;34673;52.808;17.856;2024-03-06T12:02:01;48.20;;;26.13;;
48853;SDS011;34673;52.808;17.856;2024-03-06T12:04:31;56.78;;;28.77;;
48853;SDS011;34673;52.808;17.856;2024-03-06T12:07:06;52.03;;;27.70;;
48853;SDS011;34673;52.808;17.856;2024-03-06T12:09:34;57.03;;;27.33;;
48853;SDS011;34673;52.808;17.856;2024-03-06T12:12:07;47.75;;;27.08;;
48853;SDS011;34673;52.808;17.856;2024-03-06T12:14:37;48.13;;;25.40;;
48853;SDS011;34673;52.808;17.856;2024-03-06T12:17:10;43.35;;;26.27;;
48853;SDS011;34673;52.808;17.856;2024-03-06T12:19:41;48.55;;;27.65;;
48853;SDS011;34673;52.808;17.856;2024-03-06T12:22:12;46.65;;;25.98;;
48853;SDS011;34673;52.808;17.856;2024-03-06T12:24:39;43.70;;;25.23;;
48853;SDS011;34673;52.808;17.856;2024-03-06T12:27:07;45.95;;;25.80;;
48853;SDS011;34673;52.808;17.856;2024-03-06T12:29:35;49.60;;;26.30;;
48853;SDS011;34673;52.808;17.856;2024-03-06T12:32:05;46.95;;;27.42;;
48853;SDS011;34673;52.808;17.856;2024-03-06T12:34:44;43.22;;;26.13;;
48853;SDS011;34673;52.808;17.856;2024-03-06T12:37:28;47.10;;;24.77;;
48853;SDS011;34673;52.808;17.856;2024-03-06T12:40:04;40.13;;;24.58;;
48853;SDS011;34673;52.808;17.856;2024-03-06T12:42:32;42.53;;;24.35;;
48853;SDS011;34673;52.808;17.856;2024-03-06T12:45:00;42.80;;;25.17;;
48853;SDS011;34673;52.808;17.856;2024-03-06T12:47:27;48.97;;;26.38;;
48853;SDS011;34673;52.808;17.856;2024-03-06T12:49:55;43.88;;;24.17;;
48853;SDS011;34673;52.808;17.856;2024-03-06T12:52:22;40.55;;;23.63;;
48853;SDS011;34673;52.808;17.856;2024-03-06T12:54:49;45.47;;;24.15;;
48853;SDS011;34673;52.808;17.856;2024-03-06T12:57:16;41.17;;;24.40;;
48853;SDS011;34673;52.808;17.856;2024-03-06T12:59:44;42.53;;;24.15;;
48853;SDS011;34673;52.808;17.856;2024-03-06T13:02:11;36.75;;;23.17;;
48853;SDS011;34673;52.808;17.856;2024-03-06T13:04:39;40.80;;;24.63;;
48853;SDS011;34673;52.808;17.856;2024-03-06T13:07:06;42.75;;;24.33;;
48853;SDS011;34673;52.808;17.856;2024-03-06T13:09:33;42.00;;;23.10;;
48853;SDS011;34673;52.808;17.856;2024-03-06T13:12:00;37.58;;;22.70;;
48853;SDS011;34673;52.808;17.856;2024-03-06T13:14:29;39.33;;;22.90;;
48853;SDS011;34673;52.808;17.856;2024-03-06T13:16:57;41.75;;;23.20;;
48853;SDS011;34673;52.808;17.856;2024-03-06T13:19:24;44.13;;;24.33;;
48853;SDS011;34673;52.808;17.856;2024-03-06T13:21:52;42.13;;;23.77;;
48853;SDS011;34673;52.808;17.856;2024-03-06T13:24:19;40.38;;;23.92;;
48853;SDS011;34673;52.808;17.856;2024-03-06T13:26:46;45.70;;;24.80;;
48853;SDS011;34673;52.808;17.856;2024-03-06T13:29:13;44.70;;;25.70;;
48853;SDS011;34673;52.808;17.856;2024-03-06T13:31:41;45.70;;;25.17;;
48853;SDS011;34673;52.808;17.856;2024-03-06T13:34:08;43.00;;;25.02;;
48853;SDS011;34673;52.808;17.856;2024-03-06T13:36:35;42.60;;;25.25;;
48853;SDS011;34673;52.808;17.856;2024-03-06T13:39:02;44.08;;;25.65;;
48853;SDS011;34673;52.808;17.856;2024-03-06T13:41:30;40.30;;;23.35;;
48853;SDS011;34673;52.808;17.856;2024-03-06T13:43:57;43.58;;;24.13;;
48853;SDS011;34673;52.808;17.856;2024-03-06T13:46:25;39.83;;;23.63;;
48853;SDS011;34673;52.808;17.856;2024-03-06T13:48:52;43.28;;;24.00;;
48853;SDS011;34673;52.808;17.856;2024-03-06T13:51:19;40.33;;;24.10;;
48853;SDS011;34673;52.808;17.856;2024-03-06T13:53:46;41.17;;;22.23;;
48853;SDS011;34673;52.808;17.856;2024-03-06T13:56:14;42.22;;;23.98;;
48853;SDS011;34673;52.808;17.856;2024-03-06T13:58:42;35.25;;;23.33;;
48853;SDS011;34673;52.808;17.856;2024-03-06T14:01:09;39.85;;;23.90;;
48853;SDS011;34673;52.808;17.856;2024-03-06T14:03:37;39.25;;;22.05;;
48853;SDS011;34673;52.808;17.856;2024-03-06T14:06:06;47.28;;;22.50;;
48853;SDS011;34673;52.808;17.856;2024-03-06T14:08:35;33.22;;;20.67;;
48853;SDS011;34673;52.808;17.856;2024-03-06T14:11:04;34.05;;;20.02;;
48853;SDS011;34673;52.808;17.856;2024-03-06T14:13:34;33.80;;;20.47;;
48853;SDS011;34673;52.808;17.856;2024-03-06T14:16:01;36.88;;;21.23;;
48853;SDS011;34673;52.808;17.856;2024-03-06T14:18:28;36.67;;;20.42;;
48853;SDS011;34673;52.808;17.856;2024-03-06T14:20:55;32.88;;;19.27;;
48853;SDS011;34673;52.808;17.856;2024-03-06T14:23:22;35.95;;;19.90;;
48853;SDS011;34673;52.808;17.856;2024-03-06T14:25:50;37.80;;;19.70;;
48853;SDS011;34673;52.808;17.856;2024-03-06T14:28:17;32.70;;;19.13;;
48853;SDS011;34673;52.808;17.856;2024-03-06T14:30:44;33.60;;;18.55;;
48853;SDS011;34673;52.808;17.856;2024-03-06T14:33:12;33.35;;;19.15;;
48853;SDS011;34673;52.808;17.856;2024-03-06T14:35:39;31.38;;;18.48;;
48853;SDS011;34673;52.808;17.856;2024-03-06T14:38:06;33.22;;;19.05;;
48853;SDS011;34673;52.808;17.856;2024-03-06T14:40:34;35.42;;;19.23;;